createdAt,value
2019-01-30T00:01:36.695Z,2.30
2019-01-30T00:04:05.530Z,2.30
2019-01-30T00:06:33.954Z,2.30
2019-01-30T00:09:02.363Z,2.40
2019-01-30T00:11:30.907Z,2.40
2019-01-30T00:13:59.339Z,2.30
2019-01-30T00:16:27.851Z,2.30
2019-01-30T00:18:56.304Z,2.30
2019-01-30T00:21:24.723Z,2.30
2019-01-30T00:23:53.146Z,2.30
2019-01-30T00:26:40.937Z,2.30
2019-01-30T00:29:28.715Z,2.30
2019-01-30T00:31:57.170Z,2.30
2019-01-30T00:37:14.375Z,2.20
2019-01-30T00:39:42.795Z,2.20
2019-01-30T00:42:30.580Z,2.20
2019-01-30T00:44:59.005Z,2.10
2019-01-30T00:47:35.016Z,2.10
2019-01-30T00:50:05.747Z,2.10
2019-01-30T00:52:34.287Z,2.10
2019-01-30T00:55:02.713Z,2.10
2019-01-30T00:57:31.195Z,2.10
2019-01-30T00:59:59.638Z,2.10
2019-01-30T01:02:28.142Z,2.10
2019-01-30T01:04:56.658Z,2.10
2019-01-30T01:07:25.085Z,2.00
2019-01-30T01:09:53.547Z,2.00
2019-01-30T01:12:22.031Z,2.00
2019-01-30T01:14:50.485Z,2.00
2019-01-30T01:17:18.900Z,2.00
2019-01-30T01:19:47.347Z,2.00
2019-01-30T01:22:15.772Z,2.00
2019-01-30T01:24:44.334Z,1.90
2019-01-30T01:27:12.832Z,1.90
2019-01-30T01:29:41.239Z,1.90
2019-01-30T01:32:09.687Z,1.80
2019-01-30T01:34:38.231Z,1.80
2019-01-30T01:37:06.647Z,1.80
2019-01-30T01:39:35.082Z,1.80
2019-01-30T01:42:03.515Z,1.80
2019-01-30T01:44:31.958Z,1.80
2019-01-30T01:47:00.407Z,1.80
2019-01-30T01:49:28.829Z,1.70
2019-01-30T01:51:57.314Z,1.70
2019-01-30T01:54:25.785Z,1.70
2019-01-30T01:56:54.211Z,1.70
2019-01-30T01:59:22.653Z,1.70
2019-01-30T02:02:10.484Z,1.70
2019-01-30T02:04:51.219Z,1.70
2019-01-30T02:07:19.647Z,1.70
2019-01-30T02:09:48.095Z,1.70
2019-01-30T02:12:16.510Z,1.60
2019-01-30T02:14:44.964Z,1.60
2019-01-30T02:17:13.387Z,1.60
2019-01-30T02:20:01.167Z,1.60
2019-01-30T02:22:29.607Z,1.60
2019-01-30T02:24:58.023Z,1.50
2019-01-30T02:27:26.468Z,1.50
2019-01-30T02:29:54.915Z,1.50
2019-01-30T02:32:23.364Z,1.50
2019-01-30T02:34:51.796Z,1.40
2019-01-30T02:37:20.255Z,1.40
2019-01-30T02:39:48.673Z,1.40
2019-01-30T02:42:17.089Z,1.40
2019-01-30T02:45:06.394Z,1.40
2019-01-30T02:47:34.828Z,1.30
2019-01-30T02:50:04.330Z,1.30
2019-01-30T02:52:32.777Z,1.30
2019-01-30T02:55:01.215Z,1.30
2019-01-30T02:57:29.623Z,1.20
2019-01-30T02:59:58.072Z,1.20
2019-01-30T03:02:26.554Z,1.20
2019-01-30T03:04:55.072Z,1.20
2019-01-30T03:07:23.512Z,1.20
2019-01-30T03:09:51.922Z,1.20
2019-01-30T03:12:20.352Z,1.20
2019-01-30T03:14:48.777Z,1.20
2019-01-30T03:17:20.138Z,1.20
2019-01-30T03:19:48.583Z,1.20
2019-01-30T03:22:17.015Z,1.10
2019-01-30T03:25:06.667Z,1.10
2019-01-30T03:27:35.111Z,1.10
2019-01-30T03:30:05.301Z,1.10
2019-01-30T03:32:33.727Z,1.10
2019-01-30T03:35:02.252Z,1.10
2019-01-30T03:37:50.108Z,1.10
2019-01-30T03:40:20.664Z,1.10
2019-01-30T03:42:49.104Z,1.10
2019-01-30T03:45:19.868Z,1.10
2019-01-30T03:47:48.454Z,1.10
2019-01-30T03:50:36.244Z,1.10
2019-01-30T03:53:04.758Z,1.20
2019-01-30T03:55:52.558Z,1.10
2019-01-30T03:58:20.976Z,1.10
2019-01-30T04:00:49.414Z,1.10
2019-01-30T04:03:17.859Z,1.10
2019-01-30T04:05:46.274Z,1.10
2019-01-30T04:08:14.739Z,1.10
2019-01-30T04:11:02.487Z,1.10
2019-01-30T04:13:30.947Z,1.20
2019-01-30T04:15:59.358Z,1.20
2019-01-30T04:18:27.800Z,1.20
2019-01-30T04:20:56.223Z,1.20
2019-01-30T04:23:24.671Z,1.30
2019-01-30T04:25:54.098Z,1.30
2019-01-30T04:28:22.530Z,1.30
2019-01-30T04:30:50.947Z,1.30
2019-01-30T04:33:19.391Z,1.30
2019-01-30T04:36:07.146Z,1.30
2019-01-30T04:38:35.586Z,1.30
2019-01-30T04:41:04.023Z,1.30
2019-01-30T04:43:32.447Z,1.40
2019-01-30T04:46:20.226Z,1.40
2019-01-30T04:48:48.651Z,1.40
2019-01-30T04:51:17.165Z,1.40
2019-01-30T04:54:05.477Z,1.40
2019-01-30T04:56:34.353Z,1.40
2019-01-30T04:59:03.548Z,1.40
2019-01-30T05:01:31.978Z,1.40
2019-01-30T05:04:19.754Z,1.40
2019-01-30T05:06:48.237Z,1.40
2019-01-30T05:09:16.686Z,1.40
2019-01-30T05:11:45.107Z,1.40
2019-01-30T05:14:13.555Z,1.40
2019-01-30T05:17:01.359Z,1.40
2019-01-30T05:19:29.778Z,1.40
2019-01-30T05:21:58.215Z,1.50
2019-01-30T05:24:26.665Z,1.40
2019-01-30T05:26:55.184Z,1.40
2019-01-30T05:29:23.629Z,1.40
2019-01-30T05:32:00.978Z,1.40
2019-01-30T05:34:22.199Z,1.40
2019-01-30T05:36:50.617Z,1.30
2019-01-30T05:39:19.753Z,1.30
2019-01-30T05:41:48.225Z,1.30
2019-01-30T05:44:16.639Z,1.30
2019-01-30T05:46:45.088Z,1.30
2019-01-30T05:49:13.517Z,1.30
2019-01-30T05:51:41.971Z,1.30
2019-01-30T05:54:10.566Z,1.30
2019-01-30T05:56:38.997Z,1.30
2019-01-30T05:59:07.502Z,1.30
2019-01-30T06:01:35.944Z,1.30
2019-01-30T06:04:04.698Z,1.30
2019-01-30T06:06:33.147Z,1.30
2019-01-30T06:09:01.560Z,1.30
2019-01-30T06:11:49.332Z,1.30
2019-01-30T06:14:17.779Z,1.30
2019-01-30T06:16:46.242Z,1.30
2019-01-30T06:19:14.746Z,1.40
2019-01-30T06:22:02.525Z,1.40
2019-01-30T06:24:31.019Z,1.40
2019-01-30T06:26:59.468Z,1.40
2019-01-30T06:29:27.978Z,1.40
2019-01-30T06:31:56.391Z,1.30
2019-01-30T06:34:24.840Z,1.30
2019-01-30T06:36:53.291Z,1.30
2019-01-30T06:39:21.859Z,1.40
2019-01-30T06:41:50.288Z,1.40
2019-01-30T06:44:18.778Z,1.40
2019-01-30T06:46:47.297Z,1.40
2019-01-30T06:49:15.715Z,1.40
2019-01-30T06:51:44.161Z,1.40
2019-01-30T06:54:12.570Z,1.40
2019-01-30T06:56:41.226Z,1.40
2019-01-30T07:02:05.409Z,1.40
2019-01-30T07:04:33.829Z,1.40
2019-01-30T07:07:02.270Z,1.40
2019-01-30T07:09:30.685Z,1.40
2019-01-30T07:11:59.231Z,1.40
2019-01-30T07:14:27.671Z,1.40
2019-01-30T07:16:56.119Z,1.40
2019-01-30T07:19:24.554Z,1.40
2019-01-30T07:21:53.000Z,1.40
2019-01-30T07:24:21.448Z,1.40
2019-01-30T07:26:49.890Z,1.40
2019-01-30T07:29:18.338Z,1.50
2019-01-30T07:31:46.871Z,1.50
2019-01-30T07:34:15.470Z,1.50
2019-01-30T07:36:43.943Z,1.50
2019-01-30T07:39:31.771Z,1.50
2019-01-30T07:42:00.221Z,1.50
2019-01-30T07:44:28.790Z,1.50
2019-01-30T07:46:57.262Z,1.60
2019-01-30T07:49:25.718Z,1.60
2019-01-30T07:51:54.144Z,1.60
2019-01-30T07:54:22.603Z,1.60
2019-01-30T07:56:51.078Z,1.70
2019-01-30T07:59:19.514Z,1.70
2019-01-30T08:01:47.947Z,1.70
2019-01-30T08:04:16.372Z,1.80
2019-01-30T08:06:44.826Z,1.80
2019-01-30T08:09:13.243Z,1.90
2019-01-30T08:11:41.686Z,1.90
2019-01-30T08:14:10.100Z,2.00
2019-01-30T08:16:38.554Z,2.00
2019-01-30T08:19:07.069Z,2.00
2019-01-30T08:21:35.618Z,2.10
2019-01-30T08:24:04.925Z,2.10
2019-01-30T08:26:53.199Z,2.10
2019-01-30T08:29:41.148Z,2.20
2019-01-30T08:32:10.042Z,2.20
2019-01-30T08:34:38.605Z,2.20
2019-01-30T08:37:07.111Z,2.20
2019-01-30T08:39:35.627Z,2.30
2019-01-30T08:42:04.047Z,2.30
2019-01-30T08:44:32.516Z,2.30
2019-01-30T08:47:20.618Z,2.40
2019-01-30T08:49:49.036Z,2.40
2019-01-30T08:52:17.487Z,2.40
2019-01-30T08:54:45.921Z,2.50
2019-01-30T08:57:14.371Z,2.50
2019-01-30T08:59:42.803Z,2.60
2019-01-30T09:02:11.233Z,2.60
2019-01-30T09:04:39.733Z,2.70
2019-01-30T09:07:10.498Z,2.70
2019-01-30T09:09:38.956Z,2.70
2019-01-30T09:12:07.442Z,2.80
2019-01-30T09:14:35.915Z,2.80
2019-01-30T09:17:08.288Z,2.80
2019-01-30T09:19:34.648Z,2.80
2019-01-30T09:22:03.086Z,2.90
2019-01-30T09:24:31.665Z,2.90
2019-01-30T09:27:00.127Z,3.00
2019-01-30T09:29:28.551Z,3.10
2019-01-30T09:31:57.160Z,3.20
2019-01-30T09:34:25.694Z,3.30
2019-01-30T09:36:54.223Z,3.40
2019-01-30T09:39:22.743Z,3.50
2019-01-30T09:41:51.207Z,3.60
2019-01-30T09:44:19.660Z,3.60
2019-01-30T09:46:48.208Z,3.70
2019-01-30T09:49:16.682Z,3.80
2019-01-30T09:51:45.216Z,3.80
2019-01-30T09:54:13.669Z,3.80
2019-01-30T09:56:42.082Z,3.80
2019-01-30T09:59:10.624Z,3.90
2019-01-30T10:01:39.031Z,4.00
2019-01-30T10:04:07.451Z,4.00
2019-01-30T10:06:35.922Z,4.10
2019-01-30T10:09:07.055Z,4.10
2019-01-30T10:11:35.490Z,4.10
2019-01-30T10:14:03.982Z,4.10
2019-01-30T10:16:32.459Z,4.20
2019-01-30T10:19:00.986Z,4.20
2019-01-30T10:21:29.691Z,4.20
2019-01-30T10:23:58.145Z,4.30
2019-01-30T10:26:26.587Z,4.40
2019-01-30T10:28:55.010Z,4.40
2019-01-30T10:31:23.460Z,4.50
2019-01-30T10:33:51.908Z,4.60
2019-01-30T10:36:20.613Z,4.60
2019-01-30T10:38:49.086Z,4.60
2019-01-30T10:41:20.448Z,4.60
2019-01-30T10:43:49.001Z,4.60
2019-01-30T10:46:17.747Z,4.60
2019-01-30T10:48:46.191Z,4.50
2019-01-30T10:51:14.612Z,4.50
2019-01-30T10:53:43.069Z,4.60
2019-01-30T10:56:11.900Z,4.60
2019-01-30T10:58:40.453Z,4.70
2019-01-30T11:01:09.631Z,4.70
2019-01-30T11:03:38.044Z,4.80
2019-01-30T11:06:06.572Z,4.90
2019-01-30T11:08:35.030Z,4.90
2019-01-30T11:11:08.000Z,5.00
2019-01-30T11:13:33.819Z,5.00
2019-01-30T11:16:02.307Z,5.00
2019-01-30T11:18:30.751Z,5.00
2019-01-30T11:20:59.270Z,5.10
2019-01-30T11:23:27.845Z,5.10
2019-01-30T11:25:57.035Z,5.20
2019-01-30T11:28:25.691Z,5.30
2019-01-30T11:30:54.121Z,5.30
2019-01-30T11:33:22.558Z,5.40
2019-01-30T11:35:50.998Z,5.40
2019-01-30T11:38:19.482Z,5.50
2019-01-30T11:40:48.002Z,5.50
2019-01-30T11:43:16.430Z,5.40
2019-01-30T11:45:45.626Z,5.40
2019-01-30T11:48:14.147Z,5.50
2019-01-30T11:50:42.643Z,5.40
2019-01-30T11:53:11.154Z,5.40
2019-01-30T11:55:39.658Z,5.50
2019-01-30T11:58:08.090Z,5.60
2019-01-30T12:00:40.784Z,5.80
2019-01-30T12:03:09.256Z,5.90
2019-01-30T12:05:38.216Z,5.90
2019-01-30T12:08:06.951Z,5.90
2019-01-30T12:10:35.376Z,5.90
2019-01-30T12:13:03.823Z,5.90
2019-01-30T12:15:32.317Z,5.80
2019-01-30T12:18:00.797Z,5.80
2019-01-30T12:20:29.309Z,5.80
2019-01-30T12:22:57.783Z,5.80
2019-01-30T12:25:26.229Z,5.80
2019-01-30T12:27:54.646Z,5.80
2019-01-30T12:30:27.821Z,5.80
2019-01-30T12:32:56.340Z,5.80
2019-01-30T12:35:24.818Z,5.80
2019-01-30T12:37:53.337Z,5.70
2019-01-30T12:40:45.577Z,5.70
2019-01-30T12:43:26.524Z,5.70
2019-01-30T12:45:54.953Z,5.70
2019-01-30T12:48:23.365Z,5.80
2019-01-30T12:50:51.802Z,5.80
2019-01-30T12:53:20.328Z,5.80
2019-01-30T12:55:48.759Z,5.80
2019-01-30T12:58:17.174Z,5.80
2019-01-30T13:00:45.947Z,5.80
2019-01-30T13:03:14.394Z,5.90
2019-01-30T13:05:42.985Z,5.90
2019-01-30T13:08:11.429Z,5.90
2019-01-30T13:10:39.890Z,5.90
2019-01-30T13:13:08.367Z,5.90
2019-01-30T13:15:36.882Z,5.90
2019-01-30T13:18:17.777Z,6.00
2019-01-30T13:20:36.002Z,6.00
2019-01-30T13:23:04.589Z,6.00
2019-01-30T13:25:33.683Z,6.00
2019-01-30T13:28:02.194Z,6.00
2019-01-30T13:30:35.902Z,6.00
2019-01-30T13:33:06.106Z,6.00
2019-01-30T13:35:53.933Z,6.00
2019-01-30T13:38:22.423Z,5.90
2019-01-30T13:40:50.879Z,5.70
2019-01-30T13:43:19.291Z,5.60
2019-01-30T13:45:47.731Z,5.50
2019-01-30T13:48:16.505Z,5.40
2019-01-30T13:50:45.014Z,5.40
2019-01-30T13:53:14.430Z,5.30
2019-01-30T13:55:43.173Z,5.30
2019-01-30T13:58:11.816Z,5.20
2019-01-30T14:00:40.357Z,5.20
2019-01-30T14:03:08.855Z,5.10
2019-01-30T14:05:37.460Z,5.00
2019-01-30T14:08:06.453Z,5.00
2019-01-30T14:10:34.928Z,4.90
2019-01-30T14:13:03.435Z,4.90
2019-01-30T14:15:32.619Z,4.90
2019-01-30T14:18:01.333Z,4.90
2019-01-30T14:20:29.842Z,4.90
2019-01-30T14:22:59.918Z,4.90
2019-01-30T14:25:28.363Z,4.90
2019-01-30T14:27:56.828Z,4.80
2019-01-30T14:30:27.887Z,4.90
2019-01-30T14:33:08.536Z,4.90
2019-01-30T14:35:37.686Z,4.80
2019-01-30T14:38:06.318Z,4.90
2019-01-30T14:40:34.803Z,4.80
2019-01-30T14:43:03.282Z,4.90
2019-01-30T14:45:31.842Z,4.80
2019-01-30T14:48:00.262Z,4.80
2019-01-30T14:50:28.857Z,4.80
2019-01-30T14:52:57.327Z,4.70
2019-01-30T14:55:27.523Z,4.70
2019-01-30T14:57:56.309Z,4.70
2019-01-30T15:00:27.313Z,4.60
2019-01-30T15:02:55.935Z,4.70
2019-01-30T15:05:24.832Z,4.60
2019-01-30T15:07:53.431Z,4.60
2019-01-30T15:10:23.643Z,4.60
2019-01-30T15:12:52.188Z,4.60
2019-01-30T15:15:23.168Z,4.60
2019-01-30T15:17:51.663Z,4.60
2019-01-30T15:20:22.325Z,4.50
2019-01-30T15:22:50.886Z,4.50
2019-01-30T15:25:21.571Z,4.50
2019-01-30T15:27:50.018Z,4.50
2019-01-30T15:30:21.791Z,4.50
2019-01-30T15:32:50.272Z,4.40
2019-01-30T15:35:18.775Z,4.40
2019-01-30T15:37:47.214Z,4.40
2019-01-30T15:40:25.150Z,4.40
2019-01-30T15:42:53.620Z,4.40
2019-01-30T15:45:41.478Z,4.30
2019-01-30T15:48:09.990Z,4.30
2019-01-30T15:50:40.801Z,4.30
2019-01-30T15:53:11.823Z,4.30
2019-01-30T15:55:59.610Z,4.30
2019-01-30T15:58:28.104Z,4.30
2019-01-30T16:00:59.841Z,4.30
2019-01-30T16:03:28.290Z,4.20
2019-01-30T16:05:56.734Z,4.20
2019-01-30T16:08:26.302Z,4.20
2019-01-30T16:10:54.757Z,4.20
2019-01-30T16:13:23.350Z,4.20
2019-01-30T16:15:57.538Z,4.20
2019-01-30T16:18:26.389Z,4.20
2019-01-30T16:20:54.927Z,4.10
2019-01-30T16:23:23.371Z,4.20
2019-01-30T16:25:51.865Z,4.20
2019-01-30T16:28:20.393Z,4.20
2019-01-30T16:30:48.870Z,4.20
2019-01-30T16:33:17.335Z,4.20
2019-01-30T16:35:55.676Z,4.20
2019-01-30T16:38:16.176Z,4.10
2019-01-30T16:40:44.625Z,4.10
2019-01-30T16:43:13.182Z,4.10
2019-01-30T16:45:41.761Z,4.10
2019-01-30T16:48:10.218Z,4.10
2019-01-30T16:50:38.799Z,4.00
2019-01-30T16:53:07.771Z,4.00
2019-01-30T16:55:38.014Z,3.90
2019-01-30T16:58:07.454Z,3.90
2019-01-30T17:00:37.719Z,3.80
2019-01-30T17:03:08.516Z,3.70
2019-01-30T17:05:37.001Z,3.60
2019-01-30T17:08:06.506Z,3.50
2019-01-30T17:10:35.123Z,3.50
2019-01-30T17:13:04.924Z,3.40
2019-01-30T17:15:40.999Z,3.40
2019-01-30T17:18:11.899Z,3.40
2019-01-30T17:20:59.758Z,3.40
2019-01-30T17:23:28.174Z,3.40
2019-01-30T17:25:56.635Z,3.40
2019-01-30T17:28:25.078Z,3.40
2019-01-30T17:30:56.621Z,3.30
2019-01-30T17:33:25.095Z,3.30
2019-01-30T17:35:53.559Z,3.30
2019-01-30T17:38:21.983Z,3.20
2019-01-30T17:40:50.880Z,3.30
2019-01-30T17:43:19.301Z,3.20
2019-01-30T17:45:47.755Z,3.30
2019-01-30T17:48:16.255Z,3.30
2019-01-30T17:50:44.724Z,3.30
2019-01-30T17:53:13.248Z,3.30
2019-01-30T17:55:41.804Z,3.30
2019-01-30T17:58:10.322Z,3.30
2019-01-30T18:00:46.826Z,3.30
2019-01-30T18:03:15.798Z,3.40
2019-01-30T18:05:44.298Z,3.30
2019-01-30T18:08:12.819Z,3.30
2019-01-30T18:10:41.306Z,3.20
2019-01-30T18:13:09.767Z,3.20
2019-01-30T18:15:57.532Z,3.10
2019-01-30T18:18:26.056Z,3.20
2019-01-30T18:20:54.485Z,3.20
2019-01-30T18:23:22.950Z,3.20
2019-01-30T18:25:51.400Z,3.30
2019-01-30T18:28:19.851Z,3.30
2019-01-30T18:30:48.282Z,3.40
2019-01-30T18:33:16.718Z,3.40
2019-01-30T18:35:45.164Z,3.40
2019-01-30T18:38:13.678Z,3.50
2019-01-30T18:40:42.095Z,3.50
2019-01-30T18:43:10.615Z,3.50
2019-01-30T18:45:39.056Z,3.50
2019-01-30T18:48:07.695Z,3.50
2019-01-30T18:50:36.219Z,3.50
2019-01-30T18:53:10.764Z,3.50
2019-01-30T18:55:58.567Z,3.50
2019-01-30T18:58:26.988Z,3.50
2019-01-30T19:00:55.523Z,3.50
2019-01-30T19:03:23.947Z,3.50
2019-01-30T19:05:52.392Z,3.50
2019-01-30T19:08:20.862Z,3.50
2019-01-30T19:10:49.310Z,3.50
2019-01-30T19:13:17.739Z,3.50
2019-01-30T19:15:46.288Z,3.50
2019-01-30T19:18:14.755Z,3.40
2019-01-30T19:20:45.645Z,3.40
2019-01-30T19:23:14.102Z,3.40
2019-01-30T19:25:42.734Z,3.40
2019-01-30T19:28:11.250Z,3.40
2019-01-30T19:30:39.711Z,3.40
2019-01-30T19:33:09.465Z,3.40
2019-01-30T19:35:38.005Z,3.30
2019-01-30T19:38:07.479Z,3.30
2019-01-30T19:40:35.900Z,3.30
2019-01-30T19:43:04.889Z,3.30
2019-01-30T19:45:33.351Z,3.30
2019-01-30T19:48:01.783Z,3.30
2019-01-30T19:50:31.266Z,3.40
2019-01-30T19:53:00.530Z,3.30
2019-01-30T19:55:28.987Z,3.40
2019-01-30T19:57:58.078Z,3.30
2019-01-30T20:00:35.532Z,3.30
2019-01-30T20:03:07.483Z,3.30
2019-01-30T20:05:55.260Z,3.30
2019-01-30T20:08:23.715Z,3.30
2019-01-30T20:11:11.703Z,3.30
2019-01-30T20:13:40.359Z,3.30
2019-01-30T20:16:09.153Z,3.30
2019-01-30T20:18:38.118Z,3.30
2019-01-30T20:21:07.110Z,3.30
2019-01-30T20:23:36.086Z,3.20
2019-01-30T20:26:05.090Z,3.20
2019-01-30T20:28:33.788Z,3.20
2019-01-30T20:31:02.335Z,3.20
2019-01-30T20:33:31.009Z,3.20
2019-01-30T20:35:59.585Z,3.20
2019-01-30T20:38:28.160Z,3.20
2019-01-30T20:40:56.734Z,3.10
2019-01-30T20:43:25.148Z,3.20
2019-01-30T20:45:53.667Z,3.10
2019-01-30T20:48:22.290Z,3.10
2019-01-30T20:50:50.907Z,3.10
2019-01-30T20:53:19.427Z,3.10
2019-01-30T20:55:47.984Z,3.10
2019-01-30T20:58:16.526Z,3.20
2019-01-30T21:00:44.934Z,3.10
2019-01-30T21:03:13.616Z,3.10
2019-01-30T21:05:50.664Z,3.10
2019-01-30T21:08:19.118Z,3.10
2019-01-30T21:10:47.574Z,3.10
2019-01-30T21:13:16.018Z,3.10
2019-01-30T21:15:44.531Z,3.10
2019-01-30T21:18:12.983Z,3.10
2019-01-30T21:20:41.654Z,3.00
2019-01-30T21:23:10.427Z,3.00
2019-01-30T21:25:42.915Z,3.00
2019-01-30T21:28:11.455Z,3.00
2019-01-30T21:30:39.883Z,3.00
2019-01-30T21:33:08.387Z,3.00
2019-01-30T21:35:36.916Z,3.00
2019-01-30T21:38:06.066Z,3.00
2019-01-30T21:40:34.659Z,3.00
2019-01-30T21:43:03.125Z,2.90
2019-01-30T21:45:31.809Z,2.90
2019-01-30T21:48:00.395Z,2.90
2019-01-30T21:50:28.836Z,2.90
2019-01-30T21:52:58.115Z,2.80
2019-01-30T21:55:26.691Z,2.80
2019-01-30T21:57:55.179Z,2.80
2019-01-30T22:00:26.174Z,2.70
2019-01-30T22:02:54.775Z,2.70
2019-01-30T22:05:25.910Z,2.70
2019-01-30T22:08:13.691Z,2.70
2019-01-30T22:10:42.141Z,2.70
2019-01-30T22:13:10.559Z,2.70
2019-01-30T22:15:39.195Z,2.70
2019-01-30T22:18:07.684Z,2.70
2019-01-30T22:20:36.188Z,2.70
2019-01-30T22:23:04.932Z,2.80
2019-01-30T22:25:33.375Z,2.80
2019-01-30T22:28:01.790Z,2.80
2019-01-30T22:30:36.242Z,2.70
2019-01-30T22:33:05.180Z,2.70
2019-01-30T22:35:33.594Z,2.60
2019-01-30T22:38:12.213Z,2.60
2019-01-30T22:40:32.188Z,2.60
2019-01-30T22:43:19.974Z,2.60
2019-01-30T22:45:50.525Z,2.60
2019-01-30T22:48:18.579Z,2.60
2019-01-30T22:50:47.023Z,2.60
2019-01-30T22:53:15.443Z,2.60
2019-01-30T22:55:43.891Z,2.60
2019-01-30T22:58:12.349Z,2.50
2019-01-30T23:01:00.373Z,2.50
2019-01-30T23:03:49.694Z,2.50
2019-01-30T23:06:41.692Z,2.50
2019-01-30T23:09:38.731Z,2.40
2019-01-30T23:12:24.947Z,2.40
2019-01-30T23:15:14.319Z,2.30
2019-01-30T23:17:48.573Z,2.30
2019-01-30T23:20:22.558Z,2.20
2019-01-30T23:23:14.059Z,2.20
2019-01-30T23:25:48.296Z,2.20
2019-01-30T23:28:22.910Z,2.20
2019-01-30T23:31:21.042Z,2.10
2019-01-30T23:34:12.002Z,2.10
2019-01-30T23:37:01.307Z,2.10
2019-01-30T23:39:52.441Z,2.10
2019-01-30T23:42:44.551Z,2.10
2019-01-30T23:45:18.766Z,2.10
2019-01-30T23:48:05.348Z,2.20
2019-01-30T23:50:39.402Z,2.20
2019-01-30T23:53:25.957Z,2.10
2019-01-30T23:56:12.751Z,2.10
2019-01-30T23:58:44.275Z,2.00
